createdAt,value
2019-02-23T00:05:30.758Z,103536.82
2019-02-23T00:08:07.803Z,103541.78
2019-02-23T00:10:32.202Z,103534.54
2019-02-23T00:13:09.149Z,103526.38
2019-02-23T00:15:33.629Z,103513.73
2019-02-23T00:17:58.010Z,103500.27
2019-02-23T00:20:22.501Z,103497.36
2019-02-23T00:22:46.913Z,103496.15
2019-02-23T00:25:11.440Z,103495.13
2019-02-23T00:27:35.916Z,103492.36
2019-02-23T00:30:00.358Z,103495.62
2019-02-23T00:32:24.765Z,103505.75
2019-02-23T00:34:55.240Z,103504.92
2019-02-23T00:37:19.634Z,103505.30
2019-02-23T00:39:44.039Z,103504.18
2019-02-23T00:42:08.456Z,103505.56
2019-02-23T00:44:32.840Z,103501.02
2019-02-23T00:47:02.494Z,103487.70
2019-02-23T00:49:35.822Z,103490.44
2019-02-23T00:52:01.928Z,103490.16
2019-02-23T00:57:02.447Z,103491.34
2019-02-23T00:59:26.844Z,103494.05
2019-02-23T01:01:51.253Z,103492.42
2019-02-23T01:04:15.669Z,103493.23
2019-02-23T01:06:40.157Z,103502.23
2019-02-23T01:09:16.432Z,103487.91
2019-02-23T01:19:28.330Z,103457.67
2019-02-23T01:21:52.743Z,103451.33
2019-02-23T01:24:17.183Z,103439.41
2019-02-23T01:26:41.577Z,103436.17
2019-02-23T01:29:06.075Z,103434.23
2019-02-23T01:31:30.462Z,103433.39
2019-02-23T01:33:54.900Z,103433.62
2019-02-23T01:36:19.447Z,103433.62
2019-02-23T01:41:20.536Z,103429.11
2019-02-23T01:43:45.034Z,103420.78
2019-02-23T01:46:09.514Z,103419.37
2019-02-23T01:51:10.249Z,103421.62
2019-02-23T01:53:34.761Z,103415.42
2019-02-23T01:55:59.174Z,103412.67
2019-02-23T02:00:59.641Z,103391.86
2019-02-23T02:03:24.236Z,103387.68
2019-02-23T02:05:48.897Z,103392.22
2019-02-23T02:08:13.331Z,103386.11
2019-02-23T02:10:37.823Z,103383.01
2019-02-23T02:13:02.523Z,103381.38
2019-02-23T02:15:27.071Z,103379.51
2019-02-23T02:17:51.588Z,103382.06
2019-02-23T02:20:16.054Z,103379.61
2019-02-23T02:25:17.263Z,103378.83
2019-02-23T02:30:21.444Z,103365.53
2019-02-23T02:32:45.982Z,103371.37
2019-02-23T02:35:31.203Z,103360.08
2019-02-23T02:40:31.778Z,103365.66
2019-02-23T02:42:56.197Z,103370.79
2019-02-23T02:45:20.614Z,103374.67
2019-02-23T02:47:45.092Z,103379.72
2019-02-23T02:53:06.214Z,103376.27
2019-02-23T02:55:30.612Z,103377.55
2019-02-23T02:57:55.021Z,103383.27
2019-02-23T03:00:19.439Z,103387.58
2019-02-23T03:02:43.839Z,103394.23
2019-02-23T03:05:29.049Z,103391.75
2019-02-23T03:07:53.522Z,103388.52
2019-02-23T03:10:23.232Z,103386.89
2019-02-23T03:15:23.584Z,103389.55
2019-02-23T03:17:47.995Z,103397.86
2019-02-23T03:22:48.749Z,103399.97
2019-02-23T03:25:13.248Z,103393.11
2019-02-23T03:30:13.736Z,103379.17
2019-02-23T03:32:38.164Z,103387.14
2019-02-23T03:35:02.564Z,103395.69
2019-02-23T03:37:26.995Z,103392.13
2019-02-23T03:39:51.413Z,103390.70
2019-02-23T03:42:15.843Z,103400.47
2019-02-23T03:47:17.054Z,103406.83
2019-02-23T03:54:54.040Z,103398.47
2019-02-23T03:57:18.459Z,103409.26
2019-02-23T03:59:42.945Z,103394.86
2019-02-23T04:02:07.436Z,103402.97
2019-02-23T04:04:31.843Z,103404.83
2019-02-23T04:06:56.244Z,103399.96
2019-02-23T04:09:20.767Z,103398.21
2019-02-23T04:11:57.721Z,103402.50
2019-02-23T04:14:22.151Z,103392.94
2019-02-23T04:16:46.566Z,103387.86
2019-02-23T04:21:47.072Z,103391.63
2019-02-23T04:24:11.515Z,103405.94
2019-02-23T04:26:35.920Z,103413.44
2019-02-23T04:29:00.360Z,103419.87
2019-02-23T04:31:24.772Z,103419.33
2019-02-23T04:33:49.216Z,103417.92
2019-02-23T04:36:13.614Z,103431.98
2019-02-23T04:41:17.565Z,103437.20
2019-02-23T04:48:54.998Z,103434.34
2019-02-23T04:51:19.497Z,103436.09
2019-02-23T04:53:43.896Z,103431.89
2019-02-23T04:56:08.325Z,103426.06
2019-02-23T04:58:32.728Z,103427.49
2019-02-23T05:00:57.161Z,103428.97
2019-02-23T05:03:21.644Z,103428.86
2019-02-23T05:05:46.149Z,103434.69
2019-02-23T05:08:22.653Z,103429.03
2019-02-23T05:10:47.077Z,103431.71
2019-02-23T05:15:47.713Z,103431.34
2019-02-23T05:18:12.112Z,103433.08
2019-02-23T05:20:36.568Z,103430.02
2019-02-23T05:23:01.032Z,103426.58
2019-02-23T05:30:37.004Z,103425.47
2019-02-23T05:33:01.412Z,103420.80
2019-02-23T05:38:05.191Z,103426.19
2019-02-23T05:40:29.603Z,103426.58
2019-02-23T05:43:00.899Z,103430.56
2019-02-23T05:45:25.673Z,103428.81
2019-02-23T05:47:50.125Z,103432.86
2019-02-23T05:50:14.524Z,103435.78
2019-02-23T05:52:39.049Z,103434.17
2019-02-23T05:55:03.603Z,103433.23
2019-02-23T05:57:28.015Z,103432.28
2019-02-23T05:59:52.476Z,103433.52
2019-02-23T06:02:16.942Z,103433.97
2019-02-23T06:04:41.313Z,103436.26
2019-02-23T06:07:05.776Z,103437.19
2019-02-23T06:09:30.212Z,103443.98
2019-02-23T06:11:54.624Z,103448.10
2019-02-23T06:14:19.057Z,103457.09
2019-02-23T06:16:43.473Z,103464.16
2019-02-23T06:19:07.901Z,103464.00
2019-02-23T06:21:32.297Z,103473.48
2019-02-23T06:26:33.200Z,103483.34
2019-02-23T06:28:57.618Z,103478.62
2019-02-23T06:31:22.023Z,103479.23
2019-02-23T06:33:46.467Z,103481.73
2019-02-23T06:36:10.915Z,103481.97
2019-02-23T06:38:35.359Z,103483.94
2019-02-23T06:40:59.784Z,103489.23
2019-02-23T06:43:24.206Z,103485.21
2019-02-23T06:45:48.697Z,103484.20
2019-02-23T06:48:13.166Z,103479.44
2019-02-23T06:55:53.379Z,103484.34
2019-02-23T06:58:17.881Z,103471.30
2019-02-23T07:00:42.392Z,103460.34
2019-02-23T07:03:06.788Z,103447.63
2019-02-23T07:05:31.216Z,103449.70
2019-02-23T07:07:55.643Z,103466.27
2019-02-23T07:10:20.071Z,103460.84
2019-02-23T07:12:44.461Z,103462.41
2019-02-23T07:15:10.630Z,103449.75
2019-02-23T07:17:35.044Z,103450.37
2019-02-23T07:19:59.476Z,103423.16
2019-02-23T07:22:24.047Z,103461.38
2019-02-23T07:24:48.689Z,103444.55
2019-02-23T07:27:13.125Z,103435.66
2019-02-23T07:29:37.620Z,103438.52
2019-02-23T07:32:02.048Z,103421.02
2019-02-23T07:34:26.498Z,103418.48
2019-02-23T07:36:50.914Z,103421.39
2019-02-23T07:39:15.407Z,103418.16
2019-02-23T07:41:39.838Z,103414.00
2019-02-23T07:44:04.261Z,103412.92
2019-02-23T07:46:28.707Z,103414.77
2019-02-23T07:48:53.183Z,103404.39
2019-02-23T07:51:17.619Z,103420.34
2019-02-23T07:53:42.035Z,103417.41
2019-02-23T07:56:06.484Z,103425.66
2019-02-23T07:58:30.891Z,103432.10
2019-02-23T08:00:55.324Z,103437.47
2019-02-23T08:03:19.740Z,103424.28
2019-02-23T08:05:44.167Z,103418.23
2019-02-23T08:08:08.590Z,103425.29
2019-02-23T08:10:33.350Z,103434.02
2019-02-23T08:12:57.785Z,103424.34
2019-02-23T08:15:22.224Z,103428.34
2019-02-23T08:17:46.647Z,103431.05
2019-02-23T08:20:13.126Z,103441.12
2019-02-23T08:22:37.772Z,103443.98
2019-02-23T08:25:02.177Z,103452.17
2019-02-23T08:27:26.672Z,103462.83
2019-02-23T08:29:51.186Z,103463.94
2019-02-23T08:32:15.617Z,103463.88
2019-02-23T08:34:40.032Z,103463.91
2019-02-23T08:37:04.480Z,103464.80
2019-02-23T08:39:28.902Z,103461.59
2019-02-23T08:41:53.315Z,103460.55
2019-02-23T08:44:17.768Z,103463.31
2019-02-23T08:46:42.181Z,103449.60
2019-02-23T08:49:06.614Z,103454.72
2019-02-23T08:51:31.020Z,103457.52
2019-02-23T08:53:55.534Z,103450.09
2019-02-23T08:56:20.011Z,103452.88
2019-02-23T08:58:44.451Z,103448.27
2019-02-23T09:01:08.919Z,103461.26
2019-02-23T09:03:33.532Z,103463.92
2019-02-23T09:05:58.004Z,103470.00
2019-02-23T09:08:24.096Z,103459.45
2019-02-23T09:10:48.501Z,103455.95
2019-02-23T09:13:12.990Z,103456.50
2019-02-23T09:15:37.444Z,103452.64
2019-02-23T09:18:01.908Z,103454.69
2019-02-23T09:20:29.423Z,103444.06
2019-02-23T09:22:59.705Z,103444.52
2019-02-23T09:25:19.494Z,103438.10
2019-02-23T09:27:43.904Z,103430.73
2019-02-23T09:30:13.779Z,103427.02
2019-02-23T09:32:38.285Z,103432.73
2019-02-23T09:35:02.771Z,103441.88
2019-02-23T09:37:27.214Z,103442.95
2019-02-23T09:39:51.647Z,103434.44
2019-02-23T09:42:16.094Z,103431.20
2019-02-23T09:44:40.575Z,103425.14
2019-02-23T09:47:05.194Z,103418.92
2019-02-23T09:49:29.564Z,103410.17
2019-02-23T09:51:54.015Z,103401.36
2019-02-23T09:54:18.434Z,103403.98
2019-02-23T09:56:42.947Z,103402.52
2019-02-23T09:59:07.557Z,103409.59
2019-02-23T10:01:32.292Z,103405.21
2019-02-23T10:03:56.691Z,103405.70
2019-02-23T10:06:21.315Z,103400.41
2019-02-23T10:08:45.728Z,103401.54
2019-02-23T10:11:10.268Z,103398.92
2019-02-23T10:13:34.710Z,103394.56
2019-02-23T10:15:59.260Z,103385.17
2019-02-23T10:18:23.699Z,103380.59
2019-02-23T10:20:48.116Z,103380.66
2019-02-23T10:23:21.488Z,103387.17
2019-02-23T10:25:38.657Z,103378.52
2019-02-23T10:28:03.141Z,103385.12
2019-02-23T10:30:27.487Z,103391.45
2019-02-23T10:32:51.942Z,103398.00
2019-02-23T10:35:16.353Z,103400.61
2019-02-23T10:37:40.908Z,103405.03
2019-02-23T10:40:07.975Z,103408.74
2019-02-23T10:42:32.386Z,103414.71
2019-02-23T10:44:56.831Z,103407.81
2019-02-23T10:47:21.253Z,103401.40
2019-02-23T10:49:45.689Z,103405.45
2019-02-23T10:52:10.233Z,103401.28
2019-02-23T10:54:34.659Z,103402.86
2019-02-23T10:56:59.094Z,103394.66
2019-02-23T10:59:23.574Z,103400.99
2019-02-23T11:01:48.052Z,103399.77
2019-02-23T11:04:12.474Z,103400.67
2019-02-23T11:06:38.483Z,103400.16
2019-02-23T11:09:03.163Z,103404.12
2019-02-23T11:11:27.737Z,103389.05
2019-02-23T11:13:52.192Z,103379.42
2019-02-23T11:16:16.679Z,103380.97
2019-02-23T11:18:41.254Z,103379.96
2019-02-23T11:21:06.012Z,103373.02
2019-02-23T11:23:30.415Z,103372.50
2019-02-23T11:25:54.905Z,103373.13
2019-02-23T11:28:19.314Z,103370.53
2019-02-23T11:30:43.804Z,103378.47
2019-02-23T11:33:08.249Z,103375.56
2019-02-23T11:35:32.672Z,103378.97
2019-02-23T11:37:57.100Z,103370.62
2019-02-23T11:40:23.416Z,103369.86
2019-02-23T11:42:47.785Z,103383.41
2019-02-23T11:45:12.856Z,103373.94
2019-02-23T11:47:38.164Z,103368.77
2019-02-23T11:50:02.560Z,103378.47
2019-02-23T11:52:27.007Z,103369.68
2019-02-23T11:54:51.439Z,103373.83
2019-02-23T11:57:15.844Z,103365.83
2019-02-23T11:59:40.284Z,103360.62
2019-02-23T12:02:04.750Z,103357.56
2019-02-23T12:04:29.282Z,103362.80
2019-02-23T12:06:53.742Z,103359.21
2019-02-23T12:09:18.166Z,103351.56
2019-02-23T12:11:42.593Z,103348.52
2019-02-23T12:14:07.079Z,103344.00
2019-02-23T12:16:31.582Z,103356.17
2019-02-23T12:18:56.097Z,103340.55
2019-02-23T12:21:20.523Z,103345.62
2019-02-23T12:23:44.967Z,103338.25
2019-02-23T12:26:09.491Z,103342.70
2019-02-23T12:28:33.921Z,103339.94
2019-02-23T12:30:58.353Z,103337.58
2019-02-23T12:33:22.786Z,103335.14
2019-02-23T12:35:47.227Z,103330.44
2019-02-23T12:38:11.718Z,103319.37
2019-02-23T12:40:36.256Z,103317.25
2019-02-23T12:43:00.771Z,103319.04
2019-02-23T12:45:25.246Z,103317.43
2019-02-23T12:47:51.263Z,103315.06
2019-02-23T12:50:15.769Z,103317.31
2019-02-23T12:52:40.306Z,103305.84
2019-02-23T12:55:06.083Z,103301.47
2019-02-23T12:57:30.558Z,103301.25
2019-02-23T12:59:55.011Z,103295.78
2019-02-23T13:02:19.519Z,103287.43
2019-02-23T13:04:44.009Z,103273.67
2019-02-23T13:07:08.519Z,103272.33
2019-02-23T13:09:33.570Z,103207.32
2019-02-23T13:12:15.950Z,103251.40
2019-02-23T13:14:55.666Z,103251.50
2019-02-23T13:17:51.831Z,103247.09
2019-02-23T13:20:38.961Z,103239.50
2019-02-23T13:23:25.788Z,103233.58
2019-02-23T13:26:09.615Z,103243.55
2019-02-23T13:28:43.256Z,103242.67
2019-02-23T13:31:18.951Z,103236.66
2019-02-23T13:34:19.721Z,103231.80
2019-02-23T13:37:15.796Z,103228.95
2019-02-23T13:39:52.287Z,103226.28
2019-02-23T13:42:22.535Z,103222.53
2019-02-23T13:45:08.088Z,103221.05
2019-02-23T13:47:41.260Z,103232.17
2019-02-23T13:50:14.730Z,103223.94
2019-02-23T13:52:42.317Z,103225.70
2019-02-23T13:55:38.258Z,103214.16
2019-02-23T13:58:05.756Z,103209.30
2019-02-23T14:00:59.813Z,103213.73
2019-02-23T14:03:42.308Z,103225.00
2019-02-23T14:06:26.215Z,103233.30
2019-02-23T14:09:21.110Z,103236.79
2019-02-23T14:11:48.591Z,103231.20
2019-02-23T14:14:32.302Z,103236.15
2019-02-23T14:17:08.887Z,103233.13
2019-02-23T14:19:55.727Z,103233.20
2019-02-23T14:22:41.339Z,103233.15
2019-02-23T14:25:28.330Z,103227.27
2019-02-23T14:28:06.626Z,103225.73
2019-02-23T14:30:50.662Z,103226.66
2019-02-23T14:33:34.550Z,103223.47
2019-02-23T14:36:16.907Z,103215.59
2019-02-23T14:39:07.131Z,103215.71
2019-02-23T14:41:46.527Z,103213.42
2019-02-23T14:44:26.044Z,103217.19
2019-02-23T14:47:09.774Z,103226.52
2019-02-23T14:49:37.277Z,103223.03
2019-02-23T14:52:13.771Z,103216.67
2019-02-23T14:55:01.212Z,103221.55
2019-02-23T14:57:31.321Z,103230.70
2019-02-23T15:00:18.539Z,103219.86
2019-02-23T15:03:04.262Z,103222.31
2019-02-23T15:05:43.704Z,103218.55
2019-02-23T15:08:22.918Z,103218.15
2019-02-23T15:11:09.744Z,103210.69
2019-02-23T15:13:53.818Z,103207.75
2019-02-23T15:16:49.735Z,103196.92
2019-02-23T15:19:32.036Z,103189.72
2019-02-23T15:22:11.166Z,103195.80
2019-02-23T15:25:13.271Z,103193.48
2019-02-23T15:27:40.447Z,103194.69
2019-02-23T15:30:07.957Z,103190.52
2019-02-23T15:32:53.419Z,103197.94
2019-02-23T15:35:26.717Z,103188.72
2019-02-23T15:38:16.579Z,103189.41
2019-02-23T15:40:52.639Z,103184.03
2019-02-23T15:43:38.282Z,103188.72
2019-02-23T15:46:17.502Z,103186.38
2019-02-23T15:49:11.739Z,103189.96
2019-02-23T15:51:36.366Z,103186.27
2019-02-23T15:54:00.778Z,103181.75
2019-02-23T15:56:25.315Z,103185.11
2019-02-23T15:58:49.809Z,103180.67
2019-02-23T16:01:14.299Z,103182.39
2019-02-23T16:03:38.760Z,103170.48
2019-02-23T16:06:03.556Z,103183.67
2019-02-23T16:08:28.051Z,103176.97
2019-02-23T16:10:52.463Z,103180.50
2019-02-23T16:13:16.992Z,103186.64
2019-02-23T16:15:41.434Z,103186.22
2019-02-23T16:18:06.024Z,103187.62
2019-02-23T16:20:30.497Z,103185.39
2019-02-23T16:22:54.935Z,103178.85
2019-02-23T16:25:19.418Z,103182.83
2019-02-23T16:27:43.860Z,103178.05
2019-02-23T16:30:10.511Z,103178.43
2019-02-23T16:32:34.904Z,103169.45
2019-02-23T16:34:59.323Z,103175.36
2019-02-23T16:37:23.747Z,103179.33
2019-02-23T16:39:48.181Z,103182.25
2019-02-23T16:42:12.581Z,103179.93
2019-02-23T16:44:37.081Z,103186.55
2019-02-23T16:47:01.512Z,103191.01
2019-02-23T16:49:25.962Z,103190.34
2019-02-23T16:51:50.375Z,103194.09
2019-02-23T16:54:14.946Z,103193.42
2019-02-23T16:56:39.426Z,103192.99
2019-02-23T16:59:03.933Z,103199.13
2019-02-23T17:01:28.500Z,103202.52
2019-02-23T17:03:52.957Z,103204.66
2019-02-23T17:06:17.363Z,103205.91
2019-02-23T17:08:41.790Z,103202.80
2019-02-23T17:11:06.495Z,103200.31
2019-02-23T17:13:30.894Z,103199.97
2019-02-23T17:15:55.318Z,103210.69
2019-02-23T17:18:19.703Z,103208.03
2019-02-23T17:20:44.105Z,103201.66
2019-02-23T17:23:08.501Z,103205.20
2019-02-23T17:25:32.933Z,103212.91
2019-02-23T17:27:57.351Z,103206.80
2019-02-23T17:30:21.793Z,103214.86
2019-02-23T17:32:46.192Z,103210.13
2019-02-23T17:35:10.701Z,103206.91
2019-02-23T17:37:35.121Z,103205.97
2019-02-23T17:39:59.590Z,103165.73
2019-02-23T17:42:28.068Z,103206.92
2019-02-23T17:44:50.441Z,103204.05
2019-02-23T17:47:15.082Z,103201.92
2019-02-23T17:49:39.533Z,103208.97
2019-02-23T17:52:03.961Z,103209.47
2019-02-23T17:54:28.382Z,103209.19
2019-02-23T17:56:52.877Z,103199.89
2019-02-23T17:59:17.326Z,103199.45
2019-02-23T18:01:41.738Z,103200.35
2019-02-23T18:04:06.260Z,103187.69
2019-02-23T18:06:31.088Z,103190.09
2019-02-23T18:08:55.510Z,103174.61
2019-02-23T18:11:19.945Z,103177.84
2019-02-23T18:13:44.459Z,103168.86
2019-02-23T18:16:08.872Z,103169.35
2019-02-23T18:18:33.471Z,103167.52
2019-02-23T18:20:58.026Z,103169.42
2019-02-23T18:23:22.554Z,103162.39
2019-02-23T18:25:46.990Z,103165.83
2019-02-23T18:28:11.586Z,103168.23
2019-02-23T18:30:36.071Z,103158.61
2019-02-23T18:33:00.543Z,103157.72
2019-02-23T18:35:25.052Z,103156.59
2019-02-23T18:37:49.510Z,103157.84
2019-02-23T18:40:14.038Z,103151.33
2019-02-23T18:42:38.472Z,103154.84
2019-02-23T18:45:03.023Z,103160.27
2019-02-23T18:47:27.514Z,103157.84
2019-02-23T18:49:52.037Z,103160.11
2019-02-23T18:52:16.532Z,103166.63
2019-02-23T18:54:40.955Z,103166.47
2019-02-23T18:57:05.355Z,103162.48
2019-02-23T18:59:29.766Z,103168.48
2019-02-23T19:01:54.384Z,103162.02
2019-02-23T19:04:18.840Z,103162.95
2019-02-23T19:06:43.359Z,103160.21
2019-02-23T19:09:07.972Z,103160.21
2019-02-23T19:11:32.549Z,103157.92
2019-02-23T19:13:57.068Z,103156.31
2019-02-23T19:16:23.298Z,103155.64
2019-02-23T19:18:47.596Z,103154.73
2019-02-23T19:21:12.106Z,103155.05
2019-02-23T19:23:36.619Z,103156.79
2019-02-23T19:26:01.149Z,103163.23
2019-02-23T19:28:25.572Z,103168.98
2019-02-23T19:30:50.027Z,103172.45
2019-02-23T19:33:14.453Z,103170.02
2019-02-23T19:35:38.966Z,103166.66
2019-02-23T19:38:03.375Z,103162.77
2019-02-23T19:40:27.907Z,103163.01
2019-02-23T19:42:52.354Z,103165.49
2019-02-23T19:45:16.787Z,103157.41
2019-02-23T19:47:42.462Z,103162.94
2019-02-23T19:50:10.007Z,103157.42
2019-02-23T19:52:35.185Z,103156.25
2019-02-23T19:54:59.589Z,103150.95
2019-02-23T19:57:24.113Z,103160.39
2019-02-23T19:59:48.671Z,103147.92
2019-02-23T20:02:13.188Z,103151.81
2019-02-23T20:04:37.698Z,103150.85
2019-02-23T20:07:02.236Z,103144.56
2019-02-23T20:09:26.753Z,103148.27
2019-02-23T20:11:51.309Z,103146.05
2019-02-23T20:14:15.738Z,103146.62
2019-02-23T20:29:06.365Z,103142.43
2019-02-23T20:31:48.543Z,103081.17
2019-02-23T20:34:30.668Z,103136.83
2019-02-23T20:37:13.288Z,103127.39
2019-02-23T20:39:55.446Z,103132.77
2019-02-23T20:42:37.786Z,103079.99
2019-02-23T20:45:20.477Z,103139.78
2019-02-23T20:48:02.592Z,103144.55
2019-02-23T20:50:44.695Z,103150.61
2019-02-23T20:53:27.100Z,103147.92
2019-02-23T20:56:09.291Z,103148.34
2019-02-23T20:58:51.506Z,103151.51
2019-02-23T21:01:34.003Z,103159.06
2019-02-23T21:04:16.384Z,103158.21
2019-02-23T21:06:58.723Z,103155.97
2019-02-23T21:09:41.261Z,103155.49
2019-02-23T21:12:23.642Z,103151.08
2019-02-23T21:15:08.230Z,103152.53
2019-02-23T21:17:50.668Z,103159.78
2019-02-23T21:20:33.213Z,103154.50
2019-02-23T21:23:15.405Z,103154.02
2019-02-23T21:25:57.986Z,103152.53
2019-02-23T21:28:40.329Z,103159.78
2019-02-23T21:31:22.908Z,103157.69
2019-02-23T21:34:05.515Z,103158.50
2019-02-23T21:36:47.591Z,103154.69
2019-02-23T21:39:29.964Z,103157.53
2019-02-23T21:41:53.563Z,103155.09
2019-02-23T21:44:19.214Z,103160.16
2019-02-23T21:46:43.658Z,103159.06
2019-02-23T21:49:08.072Z,103160.05
2019-02-23T21:51:32.523Z,103155.70
2019-02-23T21:53:56.935Z,103152.89
2019-02-23T21:56:21.375Z,103154.73
2019-02-23T21:58:45.781Z,103154.55
2019-02-23T22:01:12.575Z,103155.70
2019-02-23T22:03:37.792Z,103159.84
2019-02-23T22:06:02.494Z,103155.30
2019-02-23T22:08:26.899Z,103156.50
2019-02-23T22:10:51.314Z,103157.96
2019-02-23T22:13:15.721Z,103157.08
2019-02-23T22:15:40.102Z,103154.46
2019-02-23T22:18:04.511Z,103155.94
2019-02-23T22:20:28.930Z,103160.22
2019-02-23T22:22:54.705Z,103152.55
2019-02-23T22:25:19.329Z,103141.45
2019-02-23T22:27:43.854Z,103150.09
2019-02-23T22:30:08.878Z,103147.05
2019-02-23T22:32:33.350Z,103140.77
2019-02-23T22:34:57.706Z,103135.03
2019-02-23T22:37:22.117Z,103140.44
2019-02-23T22:39:46.509Z,103147.11
2019-02-23T22:42:10.916Z,103142.16
2019-02-23T22:44:35.417Z,103135.71
2019-02-23T22:46:59.808Z,103132.75
2019-02-23T22:49:24.254Z,103136.48
2019-02-23T22:51:48.658Z,103141.27
2019-02-23T22:54:13.071Z,103129.60
2019-02-23T22:56:37.471Z,103128.79
2019-02-23T22:59:01.877Z,103133.91
2019-02-23T23:01:27.020Z,103123.91
2019-02-23T23:03:51.518Z,103120.63
2019-02-23T23:06:15.936Z,103121.97
2019-02-23T23:08:40.395Z,103120.72
2019-02-23T23:11:04.985Z,103123.98
2019-02-23T23:13:29.402Z,103081.27
2019-02-23T23:15:53.819Z,103123.98
2019-02-23T23:18:18.313Z,103125.41
2019-02-23T23:20:42.738Z,103058.53
2019-02-23T23:23:07.145Z,103120.16
2019-02-23T23:25:31.642Z,103073.72
2019-02-23T23:27:56.038Z,103114.81
2019-02-23T23:30:20.470Z,103118.29
2019-02-23T23:32:44.888Z,103110.89
2019-02-23T23:35:09.482Z,103109.05
2019-02-23T23:37:33.873Z,103107.30
2019-02-23T23:39:58.357Z,103109.40
2019-02-23T23:42:22.849Z,103111.80
2019-02-23T23:44:47.269Z,103114.77
2019-02-23T23:47:11.663Z,103116.70
2019-02-23T23:49:36.066Z,103109.27
2019-02-23T23:52:00.489Z,103119.19
2019-02-23T23:54:24.880Z,103112.88
2019-02-23T23:56:49.310Z,103109.05
2019-02-23T23:59:13.729Z,103103.42
